Wetterstation Vordersexau
Wetterdaten: Woche 28.03.11 - 03.04.11 (KW13)
Datum Zeit Temp. A. Feuchte A. Luftdruck Regen Wind Richtung Taupunkt Windchill Windben
28.03.2011 00:00 7,9 C 87 % 1009,8 hPa 0,0 l/m 0,0 km/h O-NO 5,9 C 7,9 C 0,0 km/h
28.03.2011 01:00 8,3 C 86 % 1010,1 hPa 2,5 l/m 3,2 km/h O 6,1 C 8,3 C 1,8 km/h
28.03.2011 02:00 8,4 C 86 % 1009,8 hPa 2,5 l/m 0,0 km/h SO 6,2 C 8,4 C 0,0 km/h
28.03.2011 03:00 8,1 C 86 % 1009,5 hPa 0,0 l/m 0,0 km/h SO 5,9 C 8,1 C 0,0 km/h
28.03.2011 04:00 7,9 C 86 % 1009,3 hPa 0,4 l/m 0,0 km/h O-SO 5,7 C 7,9 C 0,0 km/h
28.03.2011 05:00 7,9 C 86 % 1009,4 hPa 0,0 l/m 0,0 km/h SO 5,7 C 7,9 C 0,0 km/h
28.03.2011 06:00 7,9 C 86 % 1009,8 hPa 0,0 l/m 0,0 km/h SO 5,7 C 7,9 C 0,0 km/h
28.03.2011 07:00 8,1 C 86 % 1010,1 hPa 0,0 l/m 0,0 km/h O-NO 5,9 C 8,1 C 0,0 km/h
28.03.2011 08:00 8,9 C 86 % 1010,6 hPa 0,0 l/m 0,0 km/h O-NO 6,7 C 8,9 C 0,0 km/h
28.03.2011 09:00 10,4 C 88 % 1010,9 hPa 0,0 l/m 0,0 km/h S 8,5 C 10,4 C 0,0 km/h
28.03.2011 10:00 12,7 C 83 % 1011,3 hPa 0,0 l/m 0,0 km/h W-SW 9,9 C 12,7 C 0,0 km/h
28.03.2011 11:00 19,8 C 61 % 1011,5 hPa 0,0 l/m 3,9 km/h N-NW 12,1 C 19,8 C 2,2 km/h
28.03.2011 12:00 21,5 C 56 % 1011,4 hPa 0,0 l/m 0,0 km/h N-NO 12,3 C 21,5 C 0,0 km/h
28.03.2011 13:00 19,1 C 57 % 1011,1 hPa 0,0 l/m 1,9 km/h N-NO 10,4 C 19,1 C 1,1 km/h
28.03.2011 14:00 18,7 C 57 % 1011,2 hPa 0,0 l/m 9,1 km/h NW 10,0 C 17,5 C 5,0 km/h
28.03.2011 15:00 21,7 C 49 % 1010,9 hPa 0,0 l/m 4,5 km/h N-NW 10,5 C 21,7 C 2,5 km/h
28.03.2011 16:00 16,9 C 56 % 1011,0 hPa 0,0 l/m 0,0 km/h W 8,1 C 16,9 C 0,0 km/h
28.03.2011 17:00 19,3 C 48 % 1010,9 hPa 0,0 l/m 0,0 km/h SW 8,0 C 19,3 C 0,0 km/h
28.03.2011 18:00 19,1 C 51 % 1011,2 hPa 0,0 l/m 4,5 km/h W 8,7 C 19,1 C 2,5 km/h
28.03.2011 19:00 14,1 C 66 % 1011,9 hPa 0,0 l/m 0,0 km/h S 7,8 C 14,1 C 0,0 km/h
28.03.2011 20:00 11,1 C 76 % 1012,5 hPa 0,0 l/m 0,0 km/h SO 7,0 C 11,1 C 0,0 km/h
28.03.2011 21:00 9,3 C 81 % 1013,2 hPa 0,0 l/m 0,0 km/h SO 6,2 C 9,3 C 0,0 km/h
28.03.2011 22:00 7,9 C 84 % 1013,5 hPa 0,0 l/m 0,0 km/h SO 5,4 C 7,9 C 0,0 km/h
28.03.2011 23:00 6,6 C 86 % 1013,7 hPa 0,0 l/m 0,0 km/h O 4,4 C 6,6 C 0,0 km/h
29.03.2011 00:00 5,9 C 87 % 1014,1 hPa 0,0 l/m 0,0 km/h O 3,9 C 5,9 C 0,0 km/h
29.03.2011 01:00 5,5 C 87 % 1014,0 hPa 0,0 l/m 0,0 km/h O-SO 3,5 C 5,5 C 0,0 km/h
29.03.2011 02:00 4,9 C 88 % 1014,0 hPa 0,0 l/m 0,0 km/h O-SO 3,1 C 4,9 C 0,0 km/h
29.03.2011 03:00 4,4 C 88 % 1013,8 hPa 0,0 l/m 0,0 km/h NO 2,6 C 4,4 C 0,0 km/h
29.03.2011 04:00 3,6 C 88 % 1013,9 hPa 0,0 l/m 0,0 km/h NO 1,8 C 3,6 C 0,0 km/h
29.03.2011 05:00 3,3 C 88 % 1013,8 hPa 0,0 l/m 0,0 km/h O-NO 1,5 C 3,3 C 0,0 km/h
29.03.2011 06:00 2,9 C 88 % 1013,9 hPa 0,0 l/m 0,0 km/h NO 1,1 C 2,9 C 0,0 km/h
29.03.2011 07:00 3,0 C 87 % 1014,0 hPa 0,0 l/m 0,0 km/h O-SO 1,1 C 3,0 C 0,0 km/h
29.03.2011 08:00 3,9 C 87 % 1014,5 hPa 0,0 l/m 0,0 km/h O-SO 1,9 C 3,9 C 0,0 km/h
29.03.2011 09:00 10,5 C 87 % 1014,7 hPa 0,0 l/m 0,0 km/h W 8,4 C 10,5 C 0,0 km/h
29.03.2011 10:00 13,8 C 71 % 1014,8 hPa 0,0 l/m 0,0 km/h N-NW 8,6 C 13,8 C 0,0 km/h
29.03.2011 11:00 18,4 C 56 % 1014,4 hPa 0,0 l/m 0,0 km/h S 9,5 C 18,4 C 0,0 km/h
29.03.2011 12:00 18,9 C 58 % 1014,1 hPa 0,0 l/m 3,2 km/h W-NW 10,5 C 18,9 C 1,8 km/h
29.03.2011 13:00 19,8 C 55 % 1013,6 hPa 0,0 l/m 0,0 km/h N-NW 10,5 C 19,8 C 0,0 km/h
29.03.2011 14:00 20,2 C 46 % 1013,1 hPa 0,0 l/m 0,6 km/h W 8,2 C 20,2 C 0,4 km/h
29.03.2011 15:00 21,8 C 37 % 1012,6 hPa 0,0 l/m 16,2 km/h W-SW 6,5 C 19,2 C 9,0 km/h
29.03.2011 16:00 23,0 C 35 % 1011,8 hPa 0,0 l/m 5,8 km/h NW 6,7 C 23,0 C 3,2 km/h
29.03.2011 17:00 25,6 C 26 % 1011,4 hPa 0,0 l/m 7,8 km/h NO 4,7 C 25,3 C 4,3 km/h
29.03.2011 18:00 26,1 C 28 % 1011,1 hPa 0,0 l/m 0,0 km/h N-NW 6,2 C 26,1 C 0,0 km/h
29.03.2011 19:00 18,1 C 43 % 1011,3 hPa 0,0 l/m 0,0 km/h NO 5,3 C 18,1 C 0,0 km/h
29.03.2011 20:00 10,9 C 63 % 1011,9 hPa 0,0 l/m 0,0 km/h SO 4,1 C 10,9 C 0,0 km/h
29.03.2011 21:00 8,7 C 70 % 1012,2 hPa 0,0 l/m 0,0 km/h O-NO 3,5 C 8,7 C 0,0 km/h
29.03.2011 22:00 7,6 C 76 % 1012,6 hPa 0,0 l/m 0,0 km/h O-SO 3,6 C 7,6 C 0,0 km/h
29.03.2011 23:00 6,9 C 79 % 1012,5 hPa 0,0 l/m 0,0 km/h S-SO 3,5 C 6,9 C 0,0 km/h
30.03.2011 00:00 6,3 C 80 % 1012,8 hPa 0,0 l/m 0,0 km/h SO 3,1 C 6,3 C 0,0 km/h
30.03.2011 01:00 5,6 C 82 % 1012,7 hPa 0,0 l/m 0,0 km/h S-SO 2,8 C 5,6 C 0,0 km/h
30.03.2011 02:00 5,7 C 83 % 1012,8 hPa 0,0 l/m 2,6 km/h O-NO 3,0 C 5,7 C 1,4 km/h
30.03.2011 03:00 5,9 C 83 % 1012,8 hPa 0,0 l/m 0,0 km/h NO 3,2 C 5,9 C 0,0 km/h
30.03.2011 04:00 6,6 C 82 % 1012,8 hPa 0,0 l/m 0,0 km/h SO 3,8 C 6,6 C 0,0 km/h
30.03.2011 05:00 6,7 C 82 % 1013,2 hPa 0,0 l/m 0,0 km/h SO 3,8 C 6,7 C 0,0 km/h
30.03.2011 06:00 6,8 C 83 % 1013,9 hPa 0,0 l/m 0,0 km/h O-NO 4,1 C 6,8 C 0,0 km/h
30.03.2011 07:00 6,9 C 84 % 1014,7 hPa 0,0 l/m 0,0 km/h NO 4,4 C 6,9 C 0,0 km/h
30.03.2011 08:00 7,8 C 84 % 1015,4 hPa 0,0 l/m 0,0 km/h SO 5,3 C 7,8 C 0,0 km/h
30.03.2011 09:00 8,9 C 86 % 1015,7 hPa 0,7 l/m 0,0 km/h S-SO 6,7 C 8,9 C 0,0 km/h
30.03.2011 10:00 10,4 C 86 % 1016,4 hPa 0,0 l/m 1,9 km/h S-SW 8,2 C 10,4 C 1,1 km/h
30.03.2011 11:00 11,2 C 83 % 1016,7 hPa 0,0 l/m 9,7 km/h W 8,4 C 9,1 C 5,4 km/h
30.03.2011 12:00 12,5 C 80 % 1016,9 hPa 0,0 l/m 6,5 km/h SW 9,1 C 12,5 C 3,6 km/h
30.03.2011 13:00 13,9 C 75 % 1016,8 hPa 0,0 l/m 14,9 km/h W-SW 9,5 C 9,9 C 8,3 km/h
30.03.2011 14:00 15,5 C 66 % 1016,2 hPa 0,0 l/m 18,1 km/h N-NO 9,2 C 10,9 C 10,1 km/h
30.03.2011 15:00 15,5 C 64 % 1015,7 hPa 0,0 l/m 1,9 km/h W-SW 8,7 C 15,5 C 1,1 km/h
30.03.2011 16:00 16,5 C 57 % 1015,4 hPa 0,0 l/m 18,1 km/h W-SW 8,0 C 12,1 C 10,1 km/h
30.03.2011 17:00 14,9 C 61 % 1015,5 hPa 0,0 l/m 21,4 km/h W-SW 7,4 C 9,3 C 11,9 km/h
30.03.2011 18:00 16,1 C 57 % 1015,8 hPa 0,0 l/m 22,0 km/h W-SW 7,6 C 10,7 C 12,2 km/h
30.03.2011 19:00 13,2 C 66 % 1015,9 hPa 0,0 l/m 3,2 km/h S 7,0 C 13,2 C 1,8 km/h
30.03.2011 20:00 12,0 C 71 % 1016,2 hPa 0,0 l/m 1,3 km/h S-SW 6,9 C 12,0 C 0,7 km/h
30.03.2011 21:00 11,8 C 73 % 1017,1 hPa 0,0 l/m 1,9 km/h S 7,1 C 11,8 C 1,1 km/h
30.03.2011 22:00 11,9 C 71 % 1017,1 hPa 0,0 l/m 3,2 km/h S-SW 6,8 C 11,9 C 1,8 km/h
30.03.2011 23:00 12,3 C 67 % 1017,4 hPa 0,0 l/m 14,3 km/h S-SW 6,4 C 8,2 C 7,9 km/h
31.03.2011 00:00 11,9 C 70 % 1017,6 hPa 0,0 l/m 13,0 km/h S-SW 6,6 C 8,3 C 7,2 km/h
31.03.2011 01:00 12,0 C 71 % 1018,1 hPa 0,0 l/m 18,8 km/h S 6,9 C 6,2 C 10,4 km/h
31.03.2011 02:00 10,9 C 78 % 1018,2 hPa 0,0 l/m 11,0 km/h SW 7,2 C 8,1 C 6,1 km/h
31.03.2011 03:00 10,9 C 78 % 1018,2 hPa 0,0 l/m 20,7 km/h S-SW 7,2 C 4,2 C 11,5 km/h
31.03.2011 04:00 10,7 C 79 % 1018,2 hPa 0,0 l/m 6,5 km/h S-SW 7,2 C 10,7 C 3,6 km/h
31.03.2011 05:00 11,0 C 77 % 1018,2 hPa 0,0 l/m 11,0 km/h SW 7,1 C 8,2 C 6,1 km/h
31.03.2011 06:00 11,1 C 75 % 1018,2 hPa 0,0 l/m 18,1 km/h W-SW 6,8 C 5,3 C 10,1 km/h
31.03.2011 07:00 11,1 C 75 % 1018,7 hPa 0,0 l/m 15,6 km/h S-SW 6,8 C 6,2 C 8,6 km/h
31.03.2011 08:00 11,4 C 75 % 1018,8 hPa 0,0 l/m 15,6 km/h W 7,1 C 6,6 C 8,6 km/h
31.03.2011 09:00 12,7 C 72 % 1018,6 hPa 0,0 l/m 1,9 km/h SW 7,8 C 12,7 C 1,1 km/h
31.03.2011 10:00 13,3 C 70 % 1018,9 hPa 0,0 l/m 14,3 km/h W-SW 7,9 C 9,4 C 7,9 km/h
31.03.2011 11:00 13,9 C 70 % 1019,1 hPa 0,0 l/m 29,2 km/h S-SW 8,5 C 6,3 C 16,2 km/h
31.03.2011 12:00 12,1 C 81 % 1019,5 hPa 0,4 l/m 25,9 km/h S 8,9 C 4,5 C 14,4 km/h
31.03.2011 13:00 11,5 C 85 % 1019,4 hPa 0,4 l/m 23,3 km/h S 9,1 C 4,3 C 13,0 km/h
31.03.2011 14:00 12,0 C 85 % 1019,4 hPa 0,7 l/m 5,2 km/h W 9,6 C 12,0 C 2,9 km/h
31.03.2011 15:00 12,1 C 85 % 1019,5 hPa 0,7 l/m 10,4 km/h S 9,7 C 9,7 C 5,8 km/h
31.03.2011 16:00 12,9 C 85 % 1019,4 hPa 0,4 l/m 14,3 km/h SW 10,4 C 8,9 C 7,9 km/h
31.03.2011 17:00 13,5 C 82 % 1019,4 hPa 0,0 l/m 21,4 km/h W-SW 10,5 C 7,4 C 11,9 km/h
31.03.2011 18:00 13,8 C 82 % 1019,7 hPa 0,0 l/m 29,8 km/h S-SW 10,8 C 6,0 C 16,6 km/h
31.03.2011 19:00 13,7 C 82 % 1020,0 hPa 0,0 l/m 23,3 km/h W 10,7 C 7,2 C 13,0 km/h
31.03.2011 20:00 13,6 C 82 % 1021,4 hPa 0,0 l/m 22,0 km/h W-SW 10,6 C 7,4 C 12,2 km/h
31.03.2011 21:00 13,5 C 83 % 1022,1 hPa 0,0 l/m 25,9 km/h W 10,7 C 6,4 C 14,4 km/h
31.03.2011 22:00 13,5 C 83 % 1022,3 hPa 0,0 l/m 18,8 km/h W-SW 10,7 C 8,1 C 10,4 km/h
31.03.2011 23:00 12,9 C 85 % 1022,7 hPa 0,0 l/m 24,6 km/h W-SW 10,4 C 5,9 C 13,7 km/h
01.04.2011 00:00 12,1 C 86 % 1023,2 hPa 0,4 l/m 0,0 km/h W-SW 9,8 C 12,1 C 0,0 km/h
01.04.2011 01:00 12,2 C 87 % 1023,3 hPa 0,0 l/m 20,1 km/h SW 10,1 C 6,1 C 11,2 km/h
01.04.2011 02:00 12,3 C 86 % 1023,6 hPa 0,0 l/m 25,3 km/h SW 10,0 C 4,9 C 14,0 km/h
01.04.2011 03:00 12,2 C 86 % 1023,5 hPa 0,0 l/m 20,1 km/h W-SW 9,9 C 6,1 C 11,2 km/h
01.04.2011 04:00 12,1 C 86 % 1023,6 hPa 0,0 l/m 6,5 km/h S-SW 9,8 C 12,1 C 3,6 km/h
01.04.2011 05:00 12,2 C 86 % 1023,8 hPa 0,0 l/m 22,7 km/h W-SW 9,9 C 5,4 C 12,6 km/h
01.04.2011 06:00 12,2 C 85 % 1024,1 hPa 0,0 l/m 2,6 km/h SW 9,8 C 12,2 C 1,4 km/h
01.04.2011 07:00 11,4 C 86 % 1024,4 hPa 0,0 l/m 0,0 km/h S-SW 9,1 C 11,4 C 0,0 km/h
01.04.2011 08:00 12,2 C 85 % 1024,5 hPa 0,4 l/m 18,8 km/h SW 9,8 C 6,5 C 10,4 km/h
01.04.2011 09:00 13,6 C 82 % 1024,8 hPa 0,0 l/m 21,4 km/h W-NW 10,6 C 7,6 C 11,9 km/h
01.04.2011 10:00 17,4 C 71 % 1024,9 hPa 0,0 l/m 16,2 km/h W 12,1 C 13,8 C 9,0 km/h
01.04.2011 11:00 19,5 C 66 % 1024,6 hPa 0,0 l/m 21,4 km/h W 13,0 C 15,3 C 11,9 km/h
01.04.2011 12:00 20,7 C 60 % 1023,7 hPa 0,0 l/m 1,9 km/h W-SW 12,7 C 20,7 C 1,1 km/h
01.04.2011 13:00 19,9 C 60 % 1023,2 hPa 0,0 l/m 11,7 km/h W-NW 11,9 C 18,0 C 6,5 km/h
01.04.2011 14:00 21,9 C 56 % 1022,5 hPa 0,0 l/m 10,4 km/h N-NO 12,7 C 20,6 C 5,8 km/h
01.04.2011 15:00 25,6 C 47 % 1021,8 hPa 0,0 l/m 3,9 km/h W 13,4 C 25,6 C 2,2 km/h
01.04.2011 16:00 26,6 C 44 % 1021,4 hPa 0,0 l/m 0,0 km/h N-NW 13,3 C 26,6 C 0,0 km/h
01.04.2011 17:00 26,3 C 41 % 1020,9 hPa 0,0 l/m 1,9 km/h W-NW 12,0 C 26,3 C 1,1 km/h
01.04.2011 18:00 22,6 C 48 % 1020,9 hPa 0,0 l/m 3,9 km/h N-NO 11,0 C 22,6 C 2,2 km/h
01.04.2011 19:00 21,8 C 51 % 1020,9 hPa 0,0 l/m 0,0 km/h N-NO 11,2 C 21,8 C 0,0 km/h
01.04.2011 20:00 14,2 C 71 % 1020,7 hPa 0,0 l/m 0,0 km/h SO 9,0 C 14,2 C 0,0 km/h
01.04.2011 21:00 13,1 C 81 % 1021,3 hPa 0,0 l/m 7,1 km/h O-NO 9,9 C 12,7 C 4,0 km/h
01.04.2011 22:00 12,3 C 83 % 1021,3 hPa 0,0 l/m 0,0 km/h SO 9,5 C 12,3 C 0,0 km/h
01.04.2011 23:00 11,2 C 85 % 1020,8 hPa 0,0 l/m 0,0 km/h NO 8,8 C 11,2 C 0,0 km/h
02.04.2011 00:00 10,9 C 86 % 1020,5 hPa 0,0 l/m 5,8 km/h NO 8,7 C 10,9 C 3,2 km/h
02.04.2011 01:00 9,0 C 86 % 1020,1 hPa 0,0 l/m 0,0 km/h NO 6,8 C 9,0 C 0,0 km/h
02.04.2011 02:00 8,1 C 87 % 1019,6 hPa 0,0 l/m 0,0 km/h O-NO 6,1 C 8,1 C 0,0 km/h
02.04.2011 03:00 7,3 C 87 % 1018,9 hPa 0,0 l/m 0,0 km/h NO 5,3 C 7,3 C 0,0 km/h
02.04.2011 04:00 6,8 C 87 % 1018,6 hPa 0,0 l/m 0,0 km/h NO 4,8 C 6,8 C 0,0 km/h
02.04.2011 05:00 6,2 C 87 % 1018,3 hPa 0,0 l/m 0,0 km/h NO 4,2 C 6,2 C 0,0 km/h
02.04.2011 06:00 6,2 C 87 % 1018,0 hPa 0,0 l/m 0,0 km/h O-NO 4,2 C 6,2 C 0,0 km/h
02.04.2011 07:00 5,5 C 87 % 1017,8 hPa 0,0 l/m 0,0 km/h N-NO 3,5 C 5,5 C 0,0 km/h
02.04.2011 08:00 7,6 C 86 % 1017,5 hPa 0,0 l/m 0,0 km/h S-SO 5,4 C 7,6 C 0,0 km/h
02.04.2011 09:00 13,8 C 84 % 1017,4 hPa 0,0 l/m 1,9 km/h W-SW 11,1 C 13,8 C 1,1 km/h
02.04.2011 10:00 19,8 C 63 % 1017,1 hPa 0,0 l/m 0,6 km/h S-SO 12,5 C 19,8 C 0,4 km/h
02.04.2011 11:00 22,6 C 55 % 1016,9 hPa 0,0 l/m 0,0 km/h W 13,1 C 22,6 C 0,0 km/h
02.04.2011 12:00 24,1 C 50 % 1016,4 hPa 0,0 l/m 2,6 km/h W-NW 13,0 C 24,1 C 1,4 km/h
02.04.2011 13:00 24,9 C 49 % 1015,5 hPa 0,0 l/m 4,5 km/h S 13,4 C 24,9 C 2,5 km/h
02.04.2011 14:00 25,4 C 49 % 1014,5 hPa 0,0 l/m 3,2 km/h S-SO 13,9 C 25,4 C 1,8 km/h
02.04.2011 15:00 29,1 C 38 % 1013,4 hPa 0,0 l/m 1,9 km/h SW 13,3 C 29,1 C 1,1 km/h
02.04.2011 16:00 32,6 C 29 % 1012,4 hPa 0,0 l/m 0,0 km/h W-SW 12,2 C 32,6 C 0,0 km/h
02.04.2011 17:00 34,1 C 26 % 1012,0 hPa 0,0 l/m 0,0 km/h W 11,8 C 34,1 C 0,0 km/h
02.04.2011 18:00 31,6 C 28 % 1011,7 hPa 0,0 l/m 0,0 km/h NW 10,8 C 31,6 C 0,0 km/h
02.04.2011 19:00 25,6 C 38 % 1011,5 hPa 0,0 l/m 0,0 km/h SO 10,2 C 25,6 C 0,0 km/h
02.04.2011 20:00 16,3 C 57 % 1012,1 hPa 0,0 l/m 0,0 km/h O-NO 7,8 C 16,3 C 0,0 km/h
02.04.2011 21:00 14,3 C 68 % 1012,5 hPa 0,0 l/m 0,0 km/h O-NO 8,5 C 14,3 C 0,0 km/h
02.04.2011 22:00 13,3 C 72 % 1012,3 hPa 0,0 l/m 0,0 km/h SO 8,4 C 13,3 C 0,0 km/h
02.04.2011 23:00 11,8 C 75 % 1012,4 hPa 0,0 l/m 0,0 km/h SO 7,5 C 11,8 C 0,0 km/h
03.04.2011 00:00 11,0 C 79 % 1012,6 hPa 0,0 l/m 4,5 km/h O-SO 7,5 C 11,0 C 2,5 km/h
03.04.2011 01:00 10,2 C 81 % 1012,3 hPa 0,0 l/m 0,0 km/h N-NO 7,1 C 10,2 C 0,0 km/h
03.04.2011 02:00 10,5 C 81 % 1012,3 hPa 0,0 l/m 0,0 km/h O-NO 7,4 C 10,5 C 0,0 km/h
03.04.2011 03:00 9,8 C 82 % 1012,0 hPa 0,0 l/m 0,0 km/h O-SO 6,9 C 9,8 C 0,0 km/h
03.04.2011 04:00 9,4 C 84 % 1011,8 hPa 0,0 l/m 0,0 km/h O 6,8 C 9,4 C 0,0 km/h
03.04.2011 05:00 9,3 C 83 % 1011,3 hPa 0,0 l/m 0,0 km/h O-NO 6,6 C 9,3 C 0,0 km/h
03.04.2011 06:00 8,8 C 85 % 1011,4 hPa 0,0 l/m 0,0 km/h NO 6,4 C 8,8 C 0,0 km/h
03.04.2011 07:00 9,2 C 85 % 1011,3 hPa 0,0 l/m 0,0 km/h SO 6,8 C 9,2 C 0,0 km/h
03.04.2011 08:00 10,9 C 83 % 1011,8 hPa 0,0 l/m 0,0 km/h O 8,1 C 10,9 C 0,0 km/h
03.04.2011 09:00 19,6 C 65 % 1012,0 hPa 0,0 l/m 0,0 km/h W 12,8 C 19,6 C 0,0 km/h
03.04.2011 10:00 21,3 C 52 % 1012,2 hPa 0,0 l/m 13,6 km/h W-SW 11,0 C 19,1 C 7,6 km/h
03.04.2011 11:00 23,9 C 47 % 1012,0 hPa 0,0 l/m 14,9 km/h W-NW 11,9 C 22,0 C 8,3 km/h
03.04.2011 12:00 23,9 C 45 % 1011,3 hPa 0,0 l/m 16,2 km/h W 11,2 C 21,8 C 9,0 km/h
03.04.2011 13:00 23,9 C 45 % 1010,5 hPa 0,0 l/m 11,0 km/h W 11,2 C 22,7 C 6,1 km/h
03.04.2011 14:00 24,2 C 44 % 1010,2 hPa 0,0 l/m 29,8 km/h SW 11,2 C 20,6 C 16,6 km/h
03.04.2011 15:00 26,1 C 41 % 1009,8 hPa 0,0 l/m 14,9 km/h W-NW 11,8 C 24,7 C 8,3 km/h
03.04.2011 16:00 28,5 C 35 % 1009,2 hPa 0,0 l/m 16,2 km/h N-NW 11,5 C 27,5 C 9,0 km/h
03.04.2011 17:00 28,3 C 36 % 1009,0 hPa 0,0 l/m 0,0 km/h W-NW 11,8 C 28,3 C 0,0 km/h
03.04.2011 18:00 23,9 C 46 % 1009,0 hPa 0,0 l/m 0,0 km/h W-NW 11,6 C 23,9 C 0,0 km/h
03.04.2011 19:00 17,8 C 69 % 1010,0 hPa 0,4 l/m 2,6 km/h O-SO 12,0 C 17,8 C 1,4 km/h
03.04.2011 20:00 15,5 C 80 % 1011,3 hPa 1,1 l/m 0,0 km/h SO 12,1 C 15,5 C 0,0 km/h
03.04.2011 21:00 14,9 C 84 % 1012,0 hPa 0,0 l/m 0,0 km/h N 12,2 C 14,9 C 0,0 km/h
03.04.2011 22:00 14,5 C 86 % 1012,4 hPa 0,7 l/m 0,0 km/h SO 12,2 C 14,5 C 0,0 km/h
03.04.2011 23:00 13,6 C 86 % 1012,4 hPa 0,0 l/m 0,0 km/h W-NW 11,3 C 13,6 C 0,0 km/h
Min-Datum _ 29.03.11 29.03.11 03.04.11 - 28.03.11 - 29.03.11 29.03.11 28.03.11
_ Min-Zeit 06:30 17:30 17:30 - 00:30 - 07:30 06:30 00:30
Minimum _ 2,9 C 26 % 1009,0 hPa - 0,0 km/h - 1,1 C 2,9 C 0,0 km/h
Max-Datum _ 02.04.11 28.03.11 01.04.11 28.03.11 31.03.11 - 02.04.11 02.04.11 31.03.11
_ Max-Zeit 17:30 09:30 10:30 01:30 18:30 - 14:30 17:30 18:30
Maximum _ 34,1 C 88 % 1024,9 hPa 2,5 l/m 29,8 km/h
S-SW
- 13,9 C 34,1 C 16,6 km/h
S-SW
Durchschnitt _ 14,0 C 71 % 1015,5 hPa #11,4 l/m 5,8 km/h SO 8,2 C 12,7 C 3,3 km/h
www.sexauwetter.de